Time;durP1;ratioP1;P1;durP2;ratioP2;P2;SDS_P1;SDS_P2;PMS_P1;PMS_P2;Temp;Humidity;BMP_temperature;BMP_pressure;BME280_temperature;BME280_humidity;BME280_pressure;Samples;Min_cycle;Max_cycle;Signal;HPM_P1;HPM_P2
2023/09/17 00:00:27;;;;;;;0.10;0.10;;;;;;;;;;5095549;28;20403;-54
2023/09/17 00:02:53;;;;;;;0.10;0.10;;;;;;;;;;5104139;28;20166;-54
2023/09/17 00:05:18;;;;;;;0.10;0.10;;;;;;;;;;5104790;28;20051;-54
2023/09/17 00:07:44;;;;;;;0.10;0.10;;;;;;;;;;5106168;28;20055;-54
2023/09/17 00:10:11;;;;;;;0.10;0.10;;;;;;;;;;5106924;28;20047;-54
2023/09/17 00:12:36;;;;;;;0.10;0.10;;;;;;;;;;5106591;28;20079;-54
2023/09/17 00:15:02;;;;;;;0.10;0.10;;;;;;;;;;5107057;28;20074;-54
2023/09/17 00:17:28;;;;;;;0.10;0.10;;;;;;;;;;5106827;28;20108;-55
2023/09/17 00:19:54;;;;;;;0.10;0.10;;;;;;;;;;5106093;28;20055;-55
2023/09/17 00:22:19;;;;;;;0.10;0.10;;;;;;;;;;5106629;28;20051;-55
2023/09/17 00:24:45;;;;;;;0.10;0.10;;;;;;;;;;5106801;28;20189;-55
2023/09/17 00:27:10;;;;;;;0.10;0.10;;;;;;;;;;5106712;28;20097;-54
2023/09/17 00:29:36;;;;;;;0.10;0.10;;;;;;;;;;5090933;28;20051;-54
2023/09/17 00:32:02;;;;;;;0.10;0.10;;;;;;;;;;5105736;28;20048;-54
2023/09/17 00:34:28;;;;;;;0.10;0.10;;;;;;;;;;5107874;28;20055;-55
2023/09/17 00:36:53;;;;;;;0.10;0.10;;;;;;;;;;5107705;28;20135;-54
2023/09/17 00:39:19;;;;;;;0.10;0.10;;;;;;;;;;5100997;28;20101;-54
2023/09/17 00:41:44;;;;;;;0.10;0.10;;;;;;;;;;5106923;28;20051;-54
2023/09/17 00:44:11;;;;;;;0.10;0.10;;;;;;;;;;5107191;28;20507;-54
2023/09/17 00:46:37;;;;;;;0.10;0.10;;;;;;;;;;5107338;28;20484;-55
2023/09/17 00:49:03;;;;;;;0.22;0.22;;;;;;;;;;5107525;28;20048;-54
2023/09/17 00:51:28;;;;;;;0.10;0.10;;;;;;;;;;5107299;28;20501;-54
2023/09/17 00:53:55;;;;;;;0.10;0.10;;;;;;;;;;5108548;28;20502;-54
2023/09/17 00:56:22;;;;;;;0.10;0.10;;;;;;;;;;5107531;28;20063;-54
2023/09/17 00:58:48;;;;;;;0.10;0.10;;;;;;;;;;5107269;28;20108;-54
2023/09/17 01:01:13;;;;;;;0.10;0.10;;;;;;;;;;5106837;28;20051;-54
2023/09/17 01:03:39;;;;;;;0.10;0.10;;;;;;;;;;5106637;28;20305;-54
2023/09/17 01:06:06;;;;;;;0.10;0.10;;;;;;;;;;5107344;28;20132;-54
2023/09/17 01:08:32;;;;;;;0.10;0.10;;;;;;;;;;5100213;28;20048;-54
2023/09/17 01:10:58;;;;;;;0.10;0.10;;;;;;;;;;5097769;28;20056;-54
2023/09/17 01:13:24;;;;;;;0.10;0.10;;;;;;;;;;5105217;28;20075;-54
2023/09/17 01:15:51;;;;;;;0.10;0.10;;;;;;;;;;5107796;28;20036;-54
2023/09/17 01:18:20;;;;;;;0.20;0.20;;;;;;;;;;5106480;28;20074;-54
2023/09/17 01:21:07;;;;;;;0.10;0.10;;;;;;;;;;5106798;28;20071;-55
2023/09/17 01:23:38;;;;;;;0.10;0.10;;;;;;;;;;5092030;28;20043;-54
2023/09/17 01:26:09;;;;;;;0.10;0.10;;;;;;;;;;5107026;28;20451;-54
2023/09/17 01:28:34;;;;;;;0.10;0.10;;;;;;;;;;5106523;28;20052;-54
2023/09/17 01:31:00;;;;;;;0.10;0.10;;;;;;;;;;5106235;28;20047;-55
2023/09/17 01:33:28;;;;;;;0.10;0.10;;;;;;;;;;5106464;28;21152;-55
2023/09/17 01:36:03;;;;;;;0.10;0.10;;;;;;;;;;5106141;28;20043;-55
2023/09/17 01:38:32;;;;;;;0.10;0.10;;;;;;;;;;5100032;28;20048;-54
2023/09/17 01:41:00;;;;;;;0.10;0.10;;;;;;;;;;5105590;28;20531;-54
2023/09/17 01:43:25;;;;;;;0.10;0.10;;;;;;;;;;5105029;28;20086;-54
2023/09/17 01:45:52;;;;;;;0.10;0.10;;;;;;;;;;5105936;28;20109;-54
2023/09/17 01:48:18;;;;;;;0.20;0.20;;;;;;;;;;5097556;28;20048;-55
2023/09/17 01:50:43;;;;;;;0.10;0.10;;;;;;;;;;5095830;28;20471;-55
2023/09/17 01:53:11;;;;;;;0.10;0.10;;;;;;;;;;5105381;28;20267;-55
2023/09/17 01:55:37;;;;;;;0.10;0.10;;;;;;;;;;5105844;28;20086;-54
2023/09/17 01:58:03;;;;;;;0.10;0.10;;;;;;;;;;5099454;28;20052;-55
2023/09/17 02:00:28;;;;;;;0.20;0.20;;;;;;;;;;5093046;28;20048;-55
2023/09/17 02:02:54;;;;;;;0.10;0.10;;;;;;;;;;5104463;28;20054;-54
2023/09/17 02:05:23;;;;;;;0.10;0.10;;;;;;;;;;5105124;28;20048;-54
2023/09/17 02:07:49;;;;;;;0.10;0.10;;;;;;;;;;5100591;28;20043;-55
2023/09/17 02:10:14;;;;;;;0.10;0.10;;;;;;;;;;5096224;28;20113;-55
2023/09/17 02:12:40;;;;;;;0.10;0.10;;;;;;;;;;5109428;28;20479;-54
2023/09/17 02:15:06;;;;;;;0.10;0.10;;;;;;;;;;5127040;28;20111;-55
2023/09/17 02:17:31;;;;;;;0.10;0.10;;;;;;;;;;5102409;28;20039;-54
2023/09/17 02:19:57;;;;;;;0.10;0.10;;;;;;;;;;5103869;28;20448;-55
2023/09/17 02:22:22;;;;;;;0.10;0.10;;;;;;;;;;5105850;28;20044;-55
2023/09/17 02:24:48;;;;;;;0.10;0.10;;;;;;;;;;5104780;28;20052;-55
2023/09/17 02:27:14;;;;;;;0.10;0.10;;;;;;;;;;5105205;28;20083;-55
2023/09/17 02:29:40;;;;;;;0.28;0.28;;;;;;;;;;5085690;28;20093;-55
2023/09/17 02:32:05;;;;;;;0.10;0.10;;;;;;;;;;5105947;28;20338;-55
2023/09/17 02:34:31;;;;;;;0.10;0.10;;;;;;;;;;5106254;28;20097;-55
2023/09/17 02:36:57;;;;;;;0.10;0.10;;;;;;;;;;5105279;28;20039;-55
2023/09/17 02:39:23;;;;;;;0.10;0.10;;;;;;;;;;5104940;28;20079;-54
2023/09/17 02:41:48;;;;;;;0.25;0.25;;;;;;;;;;5104506;28;20039;-54
2023/09/17 02:44:14;;;;;;;0.10;0.10;;;;;;;;;;5105054;28;20044;-54
2023/09/17 02:46:40;;;;;;;0.10;0.10;;;;;;;;;;5104591;28;20405;-54
2023/09/17 02:49:06;;;;;;;0.20;0.20;;;;;;;;;;5104297;28;20054;-54
2023/09/17 02:51:31;;;;;;;0.10;0.10;;;;;;;;;;5105324;28;20463;-43
2023/09/17 02:53:57;;;;;;;0.20;0.20;;;;;;;;;;5105713;28;20059;-46
2023/09/17 02:56:22;;;;;;;0.10;0.10;;;;;;;;;;5104753;28;20070;-43
2023/09/17 02:58:48;;;;;;;0.10;0.10;;;;;;;;;;5104449;28;20094;-45
2023/09/17 03:01:15;;;;;;;0.10;0.10;;;;;;;;;;5104585;28;20048;-44
2023/09/17 03:03:41;;;;;;;0.10;0.10;;;;;;;;;;5104364;28;20355;-46
2023/09/17 03:06:08;;;;;;;0.10;0.10;;;;;;;;;;5104508;28;20134;-45
2023/09/17 03:08:33;;;;;;;0.10;0.10;;;;;;;;;;5093921;28;20105;-44
2023/09/17 03:10:59;;;;;;;0.10;0.10;;;;;;;;;;5097083;28;20553;-47
2023/09/17 03:13:25;;;;;;;0.10;0.10;;;;;;;;;;5105351;28;20051;-43
2023/09/17 03:15:59;;;;;;;0.10;0.10;;;;;;;;;;5105588;28;20048;-42
2023/09/17 03:18:24;;;;;;;0.10;0.10;;;;;;;;;;5103669;28;20052;-47
2023/09/17 03:20:52;;;;;;;0.10;0.10;;;;;;;;;;5105200;28;20048;-45
2023/09/17 03:23:18;;;;;;;0.10;0.10;;;;;;;;;;5105220;28;20051;-46
2023/09/17 03:25:44;;;;;;;0.10;0.10;;;;;;;;;;5104747;28;20359;-45
2023/09/17 03:28:11;;;;;;;0.10;0.10;;;;;;;;;;5096736;28;20164;-47
2023/09/17 03:30:37;;;;;;;0.10;0.10;;;;;;;;;;5100663;28;20048;-46
2023/09/17 03:33:03;;;;;;;3.10;0.20;;;;;;;;;;5105250;28;20561;-44
2023/09/17 03:35:31;;;;;;;0.10;0.10;;;;;;;;;;5105087;28;20134;-45
2023/09/17 03:37:56;;;;;;;0.10;0.10;;;;;;;;;;5103325;28;20480;-44
2023/09/17 03:40:22;;;;;;;0.10;0.10;;;;;;;;;;5103659;28;20400;-44
2023/09/17 03:42:47;;;;;;;0.10;0.10;;;;;;;;;;5104083;28;20100;-42
2023/09/17 03:45:13;;;;;;;0.10;0.10;;;;;;;;;;5104218;28;20059;-44
2023/09/17 03:47:39;;;;;;;0.10;0.10;;;;;;;;;;5103611;28;20051;-46
2023/09/17 03:50:06;;;;;;;0.10;0.10;;;;;;;;;;5103741;28;20052;-45
2023/09/17 03:52:33;;;;;;;0.10;0.10;;;;;;;;;;5104730;28;20039;-44
2023/09/17 03:54:59;;;;;;;0.10;0.10;;;;;;;;;;5104597;28;20044;-45
2023/09/17 03:57:25;;;;;;;0.10;0.10;;;;;;;;;;5103600;28;20054;-42
2023/09/17 03:59:50;;;;;;;0.10;0.10;;;;;;;;;;5104842;28;20146;-47
2023/09/17 04:02:18;;;;;;;0.10;0.10;;;;;;;;;;5104275;28;20075;-43
2023/09/17 04:04:44;;;;;;;0.10;0.10;;;;;;;;;;5103843;28;20147;-45
2023/09/17 04:07:09;;;;;;;0.25;0.25;;;;;;;;;;5103303;28;20039;-44
2023/09/17 04:09:35;;;;;;;0.10;0.10;;;;;;;;;;5084502;28;20063;-45
2023/09/17 04:12:04;;;;;;;0.10;0.10;;;;;;;;;;5104077;28;20044;-42
2023/09/17 04:14:31;;;;;;;0.10;0.10;;;;;;;;;;5104909;28;20507;-44
2023/09/17 04:17:00;;;;;;;0.10;0.10;;;;;;;;;;5104469;28;20475;-44
2023/09/17 04:19:27;;;;;;;0.10;0.10;;;;;;;;;;5098844;28;20043;-46
2023/09/17 04:21:53;;;;;;;0.10;0.10;;;;;;;;;;5104396;28;20051;-46
2023/09/17 04:24:18;;;;;;;0.10;0.10;;;;;;;;;;5104370;28;20576;-42
2023/09/17 04:26:45;;;;;;;0.22;0.22;;;;;;;;;;5103653;28;20047;-44
2023/09/17 04:29:12;;;;;;;0.10;0.10;;;;;;;;;;5089282;28;20052;-43
2023/09/17 04:31:38;;;;;;;0.10;0.10;;;;;;;;;;5103356;28;20043;-45
2023/09/17 04:34:04;;;;;;;0.10;0.10;;;;;;;;;;5104321;28;20205;-45
2023/09/17 04:36:29;;;;;;;0.10;0.10;;;;;;;;;;5103612;28;20487;-43
2023/09/17 04:38:55;;;;;;;0.10;0.10;;;;;;;;;;5096814;28;20135;-43
2023/09/17 04:41:20;;;;;;;0.10;0.10;;;;;;;;;;5102519;28;20257;-44
2023/09/17 04:43:46;;;;;;;0.10;0.10;;;;;;;;;;5102982;28;20487;-45
2023/09/17 04:46:12;;;;;;;0.10;0.10;;;;;;;;;;5102689;28;20287;-46
2023/09/17 04:48:38;;;;;;;0.10;0.10;;;;;;;;;;5100499;28;20282;-45
2023/09/17 04:51:05;;;;;;;0.10;0.10;;;;;;;;;;5101486;28;20083;-43
2023/09/17 04:53:30;;;;;;;0.10;0.10;;;;;;;;;;5087277;28;20075;-46
2023/09/17 04:55:56;;;;;;;0.10;0.10;;;;;;;;;;5106664;28;20476;-43
2023/09/17 04:58:21;;;;;;;0.10;0.10;;;;;;;;;;5105655;28;20054;-44
2023/09/17 05:00:47;;;;;;;0.10;0.10;;;;;;;;;;5105948;28;20127;-47
2023/09/17 05:03:12;;;;;;;0.10;0.10;;;;;;;;;;5106739;28;20052;-46
2023/09/17 05:05:38;;;;;;;0.10;0.10;;;;;;;;;;5105985;28;20565;-45
2023/09/17 05:08:04;;;;;;;0.10;0.10;;;;;;;;;;5098784;28;20056;-44
2023/09/17 05:10:30;;;;;;;0.10;0.10;;;;;;;;;;5089732;27;20396;-47
2023/09/17 05:12:56;;;;;;;0.10;0.10;;;;;;;;;;5105707;28;20575;-44
2023/09/17 05:15:22;;;;;;;0.13;0.13;;;;;;;;;;5106766;28;20051;-42
2023/09/17 05:17:48;;;;;;;0.10;0.10;;;;;;;;;;5105506;28;20415;-45
2023/09/17 05:20:13;;;;;;;0.10;0.10;;;;;;;;;;5106128;28;20438;-43
2023/09/17 05:22:39;;;;;;;0.20;0.20;;;;;;;;;;5106883;28;20643;-44
2023/09/17 05:25:07;;;;;;;0.10;0.10;;;;;;;;;;5106318;28;20086;-46
2023/09/17 05:27:33;;;;;;;0.10;0.10;;;;;;;;;;5105702;28;20070;-46
2023/09/17 05:30:00;;;;;;;0.10;0.10;;;;;;;;;;5105562;28;20052;-46
2023/09/17 05:32:26;;;;;;;0.10;0.10;;;;;;;;;;5106263;28;20140;-45
2023/09/17 05:34:51;;;;;;;0.10;0.10;;;;;;;;;;5107037;28;20047;-44
2023/09/17 05:37:17;;;;;;;0.10;0.10;;;;;;;;;;5106461;28;20047;-46
2023/09/17 05:39:43;;;;;;;0.10;0.10;;;;;;;;;;5106310;28;20288;-46
2023/09/17 05:42:08;;;;;;;0.10;0.10;;;;;;;;;;5104681;28;20126;-45
2023/09/17 05:44:34;;;;;;;0.20;0.20;;;;;;;;;;5106375;28;20493;-44
2023/09/17 05:46:59;;;;;;;0.10;0.10;;;;;;;;;;5106210;28;20051;-44
2023/09/17 05:49:25;;;;;;;0.10;0.10;;;;;;;;;;5104872;28;20078;-45
2023/09/17 05:51:50;;;;;;;0.10;0.10;;;;;;;;;;5105736;28;20055;-46
2023/09/17 05:54:16;;;;;;;0.15;0.15;;;;;;;;;;5106876;28;20044;-42
2023/09/17 05:56:42;;;;;;;0.10;0.10;;;;;;;;;;5106908;28;20048;-45
2023/09/17 05:59:07;;;;;;;0.10;0.10;;;;;;;;;;5105669;28;20054;-43
2023/09/17 06:01:33;;;;;;;0.15;0.10;;;;;;;;;;5105875;28;20051;-42
2023/09/17 06:03:59;;;;;;;0.10;0.10;;;;;;;;;;5106073;28;20050;-46
2023/09/17 06:06:25;;;;;;;0.13;0.13;;;;;;;;;;5106087;28;20044;-45
2023/09/17 06:08:51;;;;;;;0.10;0.10;;;;;;;;;;5100782;28;20055;-45
2023/09/17 06:11:18;;;;;;;0.10;0.10;;;;;;;;;;5105034;28;20054;-43
2023/09/17 06:13:43;;;;;;;0.10;0.10;;;;;;;;;;5106268;28;20047;-45
2023/09/17 06:16:09;;;;;;;0.10;0.10;;;;;;;;;;5106558;28;20474;-43
2023/09/17 06:18:35;;;;;;;0.10;0.10;;;;;;;;;;5105075;28;20147;-45
2023/09/17 06:21:01;;;;;;;0.10;0.10;;;;;;;;;;5106006;28;20554;-44
2023/09/17 06:23:27;;;;;;;0.10;0.10;;;;;;;;;;5105212;28;20047;-45
2023/09/17 06:25:52;;;;;;;0.10;0.10;;;;;;;;;;5104814;28;20120;-43
2023/09/17 06:28:18;;;;;;;0.10;0.10;;;;;;;;;;5104555;28;20218;-44
2023/09/17 06:30:45;;;;;;;0.10;0.10;;;;;;;;;;5103523;28;20747;-43
2023/09/17 06:33:10;;;;;;;0.10;0.10;;;;;;;;;;5105210;28;20098;-43
2023/09/17 06:35:36;;;;;;;0.10;0.10;;;;;;;;;;5105964;28;20488;-43
2023/09/17 06:38:02;;;;;;;0.10;0.10;;;;;;;;;;5103690;28;20052;-46
2023/09/17 06:40:27;;;;;;;0.10;0.10;;;;;;;;;;5104609;28;20044;-46
2023/09/17 06:42:53;;;;;;;0.10;0.10;;;;;;;;;;5104630;28;20239;-43
2023/09/17 06:45:18;;;;;;;0.20;0.20;;;;;;;;;;5105319;28;20081;-45
2023/09/17 06:47:44;;;;;;;0.10;0.10;;;;;;;;;;5100887;28;20790;-43
2023/09/17 06:50:10;;;;;;;0.10;0.10;;;;;;;;;;5089959;28;20051;-44
2023/09/17 06:52:36;;;;;;;0.10;0.10;;;;;;;;;;5104017;28;20054;-44
2023/09/17 06:55:01;;;;;;;0.10;0.10;;;;;;;;;;5104833;28;20062;-43
2023/09/17 06:57:29;;;;;;;0.00;0.00;;;;;;;;;;5104434;28;20035;-44
2023/09/17 06:59:54;;;;;;;0.10;0.10;;;;;;;;;;5104533;28;20640;-45
2023/09/17 07:02:20;;;;;;;0.10;0.10;;;;;;;;;;5104955;28;20594;-45
2023/09/17 07:04:45;;;;;;;0.13;0.13;;;;;;;;;;5104737;28;20412;-43
2023/09/17 07:07:11;;;;;;;0.10;0.10;;;;;;;;;;5104560;28;20100;-42
2023/09/17 07:09:36;;;;;;;0.10;0.10;;;;;;;;;;5105677;28;20307;-45
2023/09/17 07:12:02;;;;;;;0.10;0.10;;;;;;;;;;5103907;28;20399;-46
2023/09/17 07:14:28;;;;;;;0.10;0.10;;;;;;;;;;5103930;28;20051;-46
2023/09/17 07:16:53;;;;;;;0.10;0.10;;;;;;;;;;5103468;28;20538;-45
2023/09/17 07:19:19;;;;;;;0.10;0.10;;;;;;;;;;5086638;28;20476;-47
2023/09/17 07:21:44;;;;;;;0.10;0.10;;;;;;;;;;5096841;28;20523;-44
2023/09/17 07:24:10;;;;;;;0.10;0.10;;;;;;;;;;5101862;28;20142;-44
2023/09/17 07:26:36;;;;;;;0.10;0.10;;;;;;;;;;5104657;28;20601;-44
2023/09/17 07:29:03;;;;;;;0.10;0.10;;;;;;;;;;5103750;28;20346;-44
2023/09/17 07:31:29;;;;;;;0.10;0.10;;;;;;;;;;5103146;28;20044;-48
2023/09/17 07:33:54;;;;;;;0.20;0.20;;;;;;;;;;5104868;28;20456;-47
2023/09/17 07:36:20;;;;;;;0.15;0.15;;;;;;;;;;5104388;28;20104;-43
2023/09/17 07:38:46;;;;;;;0.10;0.10;;;;;;;;;;5091348;28;20518;-46
2023/09/17 07:41:11;;;;;;;0.10;0.10;;;;;;;;;;5087464;28;20052;-43
2023/09/17 07:43:37;;;;;;;0.10;0.10;;;;;;;;;;5103730;28;20104;-46
2023/09/17 07:46:03;;;;;;;0.10;0.10;;;;;;;;;;5101961;28;20047;-45
2023/09/17 07:48:29;;;;;;;0.10;0.10;;;;;;;;;;5093550;28;20060;-46
2023/09/17 07:50:56;;;;;;;0.10;0.10;;;;;;;;;;5083747;28;20431;-47
2023/09/17 07:53:21;;;;;;;0.10;0.10;;;;;;;;;;5102359;28;20047;-47
2023/09/17 07:55:47;;;;;;;0.10;0.10;;;;;;;;;;5102401;28;20097;-46
2023/09/17 07:58:12;;;;;;;0.10;0.10;;;;;;;;;;5102321;28;20048;-43
2023/09/17 08:00:38;;;;;;;0.10;0.10;;;;;;;;;;5103232;28;20051;-45
2023/09/17 08:03:04;;;;;;;0.10;0.10;;;;;;;;;;5103383;28;20480;-46
2023/09/17 08:05:29;;;;;;;0.10;0.10;;;;;;;;;;5102814;28;20400;-45
2023/09/17 08:07:55;;;;;;;0.10;0.10;;;;;;;;;;5098201;28;20047;-45
2023/09/17 08:10:21;;;;;;;0.10;0.10;;;;;;;;;;5120579;28;20553;-44
2023/09/17 08:12:47;;;;;;;0.10;0.10;;;;;;;;;;5102397;28;20054;-45
2023/09/17 08:15:13;;;;;;;0.10;0.10;;;;;;;;;;5103418;28;20458;-46
2023/09/17 08:17:38;;;;;;;0.10;0.10;;;;;;;;;;5099971;28;20073;-46
2023/09/17 08:20:05;;;;;;;0.10;0.10;;;;;;;;;;5082947;28;20109;-45
2023/09/17 08:22:32;;;;;;;0.10;0.10;;;;;;;;;;5096860;28;20413;-45
2023/09/17 08:24:58;;;;;;;0.10;0.10;;;;;;;;;;5102071;28;20546;-44
2023/09/17 08:27:23;;;;;;;0.10;0.10;;;;;;;;;;5105294;28;20453;-43
2023/09/17 08:29:49;;;;;;;0.10;0.10;;;;;;;;;;5085797;28;20056;-42
2023/09/17 08:32:14;;;;;;;0.10;0.10;;;;;;;;;;5100914;28;20142;-46
2023/09/17 08:34:40;;;;;;;0.10;0.10;;;;;;;;;;5107484;28;20058;-44
2023/09/17 08:37:06;;;;;;;0.10;0.10;;;;;;;;;;5107045;28;20080;-44
2023/09/17 08:39:32;;;;;;;0.10;0.10;;;;;;;;;;5087837;28;20044;-42
2023/09/17 08:41:59;;;;;;;0.20;0.20;;;;;;;;;;5095393;28;20141;-45
2023/09/17 08:44:27;;;;;;;0.10;0.10;;;;;;;;;;5107056;28;20526;-44
2023/09/17 08:46:54;;;;;;;0.10;0.10;;;;;;;;;;5106795;28;20592;-45
2023/09/17 08:49:19;;;;;;;0.10;0.10;;;;;;;;;;5089980;28;20048;-43
2023/09/17 08:51:45;;;;;;;0.10;0.10;;;;;;;;;;5091497;28;20116;-45
2023/09/17 08:54:14;;;;;;;0.10;0.10;;;;;;;;;;5106225;28;20051;-42
2023/09/17 08:56:42;;;;;;;0.10;0.10;;;;;;;;;;5107165;28;20090;-43
2023/09/17 08:59:07;;;;;;;;;;;;;;;;;;5091935;28;20079;-47
2023/09/17 09:01:33;;;;;;;0.10;0.10;;;;;;;;;;5106575;28;19986;-44
2023/09/17 09:04:00;;;;;;;0.15;0.15;;;;;;;;;;5107922;28;20109;-43
2023/09/17 09:06:27;;;;;;;0.10;0.10;;;;;;;;;;5106765;28;20048;-45
2023/09/17 09:08:54;;;;;;;0.10;0.10;;;;;;;;;;5098950;28;20051;-45
2023/09/17 09:11:19;;;;;;;0.10;0.10;;;;;;;;;;5106478;28;20054;-45
2023/09/17 09:13:46;;;;;;;0.10;0.10;;;;;;;;;;5106015;28;20052;-43
2023/09/17 09:16:12;;;;;;;0.10;0.10;;;;;;;;;;5106849;28;20658;-46
2023/09/17 09:18:38;;;;;;;0.10;0.10;;;;;;;;;;5094457;28;20344;-43
2023/09/17 09:21:04;;;;;;;0.10;0.10;;;;;;;;;;5086065;28;20044;-43
2023/09/17 09:23:29;;;;;;;0.10;0.10;;;;;;;;;;5105353;28;20074;-46
2023/09/17 09:25:55;;;;;;;0.10;0.10;;;;;;;;;;5105664;28;20133;-45
2023/09/17 09:28:20;;;;;;;0.10;0.10;;;;;;;;;;5096541;28;20048;-45
2023/09/17 09:30:46;;;;;;;0.10;0.10;;;;;;;;;;5085365;28;20048;-42
2023/09/17 09:33:12;;;;;;;0.10;0.10;;;;;;;;;;5105664;28;20113;-42
2023/09/17 09:35:38;;;;;;;0.10;0.10;;;;;;;;;;5106714;28;20092;-45
2023/09/17 09:38:04;;;;;;;0.10;0.10;;;;;;;;;;5098526;28;20457;-44
2023/09/17 09:40:30;;;;;;;0.10;0.10;;;;;;;;;;5085163;28;20155;-42
2023/09/17 09:42:56;;;;;;;0.10;0.10;;;;;;;;;;5100237;28;20048;-43
2023/09/17 09:45:23;;;;;;;0.10;0.10;;;;;;;;;;5106261;28;20048;-45
2023/09/17 09:47:49;;;;;;;0.13;0.13;;;;;;;;;;5103943;28;20492;-44
2023/09/17 09:50:25;;;;;;;0.10;0.10;;;;;;;;;;5104964;28;20056;-45
2023/09/17 09:52:51;;;;;;;0.10;0.10;;;;;;;;;;5104494;28;20051;-44
2023/09/17 09:55:16;;;;;;;0.10;0.10;;;;;;;;;;5104794;28;20062;-43
2023/09/17 09:57:42;;;;;;;0.10;0.10;;;;;;;;;;5106165;28;20124;-41
2023/09/17 10:00:14;;;;;;;0.10;0.10;;;;;;;;;;5104356;28;20036;-43
2023/09/17 10:02:40;;;;;;;0.10;0.10;;;;;;;;;;5105235;28;20316;-46
2023/09/17 10:05:07;;;;;;;0.10;0.10;;;;;;;;;;5106025;28;20146;-45
2023/09/17 10:07:33;;;;;;;0.10;0.10;;;;;;;;;;5088333;28;20427;-43
2023/09/17 10:10:00;;;;;;;0.10;0.10;;;;;;;;;;5099413;28;20063;-42
2023/09/17 10:12:26;;;;;;;0.10;0.10;;;;;;;;;;5103623;28;20460;-43
2023/09/17 10:14:51;;;;;;;0.17;0.17;;;;;;;;;;5105505;28;20609;-44
2023/09/17 10:17:17;;;;;;;0.10;0.10;;;;;;;;;;5106676;28;20104;-43
2023/09/17 10:19:45;;;;;;;0.10;0.10;;;;;;;;;;5098115;28;20130;-44
2023/09/17 10:22:12;;;;;;;0.10;0.10;;;;;;;;;;5105228;28;20051;-45
2023/09/17 10:24:38;;;;;;;0.10;0.10;;;;;;;;;;5105999;28;20043;-46
2023/09/17 10:27:05;;;;;;;0.10;0.10;;;;;;;;;;5106650;28;20043;-44
2023/09/17 10:29:32;;;;;;;0.10;0.10;;;;;;;;;;5104711;28;20543;-46
2023/09/17 10:31:58;;;;;;;0.10;0.10;;;;;;;;;;5103628;28;20098;-44
2023/09/17 10:34:25;;;;;;;0.10;0.10;;;;;;;;;;5105684;28;20100;-43
2023/09/17 10:36:51;;;;;;;0.10;0.10;;;;;;;;;;5105768;28;20051;-44
2023/09/17 10:39:18;;;;;;;0.13;0.13;;;;;;;;;;5103381;28;20051;-45
2023/09/17 10:41:44;;;;;;;0.10;0.10;;;;;;;;;;5104729;28;20044;-45
2023/09/17 10:44:13;;;;;;;0.10;0.10;;;;;;;;;;5105720;28;20043;-44
2023/09/17 10:46:40;;;;;;;0.10;0.10;;;;;;;;;;5104788;28;20198;-43
2023/09/17 10:49:07;;;;;;;0.10;0.10;;;;;;;;;;5089899;28;20048;-45
2023/09/17 10:51:33;;;;;;;0.10;0.10;;;;;;;;;;5102928;28;20059;-46
2023/09/17 10:53:58;;;;;;;0.10;0.10;;;;;;;;;;5103775;28;20055;-45
2023/09/17 10:56:25;;;;;;;0.10;0.10;;;;;;;;;;5105049;28;20067;-46
2023/09/17 10:58:51;;;;;;;0.10;0.10;;;;;;;;;;5105219;28;20387;-42
2023/09/17 11:01:20;;;;;;;0.10;0.10;;;;;;;;;;5104273;28;20058;-46
2023/09/17 11:03:52;;;;;;;0.10;0.10;;;;;;;;;;5105096;28;20255;-44
2023/09/17 11:06:23;;;;;;;0.10;0.10;;;;;;;;;;5097110;28;20048;-44
2023/09/17 11:08:50;;;;;;;0.10;0.10;;;;;;;;;;5088951;28;20039;-45
2023/09/17 11:11:17;;;;;;;0.10;0.10;;;;;;;;;;5104217;28;20048;-45
2023/09/17 11:13:43;;;;;;;0.10;0.10;;;;;;;;;;5102294;28;20570;-44
2023/09/17 11:16:09;;;;;;;0.10;0.10;;;;;;;;;;5103487;28;20078;-45
2023/09/17 11:18:34;;;;;;;0.10;0.10;;;;;;;;;;5093967;28;20040;-46
2023/09/17 11:21:06;;;;;;;0.10;0.10;;;;;;;;;;5084339;28;20056;-44
2023/09/17 11:23:47;;;;;;;0.10;0.10;;;;;;;;;;5099775;28;20051;-44
2023/09/17 11:26:15;;;;;;;0.10;0.10;;;;;;;;;;5105525;28;20056;-44
2023/09/17 11:28:40;;;;;;;0.10;0.10;;;;;;;;;;5092817;28;20048;-46
2023/09/17 11:31:10;;;;;;;0.10;0.10;;;;;;;;;;5094816;28;20071;-43
2023/09/17 11:33:37;;;;;;;0.10;0.10;;;;;;;;;;5102936;28;20563;-46
2023/09/17 11:36:03;;;;;;;0.10;0.10;;;;;;;;;;5104147;28;20518;-42
2023/09/17 11:38:30;;;;;;;0.10;0.10;;;;;;;;;;5093814;28;20044;-44
2023/09/17 11:41:11;;;;;;;0.10;0.10;;;;;;;;;;5083429;28;20439;-43
2023/09/17 11:43:38;;;;;;;0.10;0.10;;;;;;;;;;5101901;28;20514;-43
2023/09/17 11:46:04;;;;;;;0.10;0.10;;;;;;;;;;5104234;28;20420;-41
2023/09/17 11:48:31;;;;;;;0.10;0.10;;;;;;;;;;5093844;28;20125;-45
2023/09/17 11:51:20;;;;;;;0.10;0.10;;;;;;;;;;5083246;28;20495;-41
2023/09/17 11:53:49;;;;;;;0.15;0.15;;;;;;;;;;5084064;28;20051;-42
2023/09/17 11:56:15;;;;;;;0.10;0.10;;;;;;;;;;5103810;28;20051;-44
2023/09/17 11:58:42;;;;;;;0.10;0.10;;;;;;;;;;5091791;28;20051;-41
2023/09/17 12:01:07;;;;;;;0.10;0.10;;;;;;;;;;5093648;28;20112;-44
2023/09/17 12:03:33;;;;;;;0.10;0.10;;;;;;;;;;5107406;28;20043;-44
2023/09/17 12:05:59;;;;;;;0.10;0.10;;;;;;;;;;5105488;28;20052;-46
2023/09/17 12:08:24;;;;;;;0.10;0.10;;;;;;;;;;5098627;28;20506;-41
2023/09/17 12:10:53;;;;;;;0.10;0.10;;;;;;;;;;5107218;28;20170;-44
2023/09/17 12:13:19;;;;;;;0.10;0.10;;;;;;;;;;5105920;28;20048;-45
2023/09/17 12:15:45;;;;;;;0.10;0.10;;;;;;;;;;5107331;28;20096;-46
2023/09/17 12:18:11;;;;;;;0.10;0.10;;;;;;;;;;5106649;28;20503;-43
2023/09/17 12:21:09;;;;;;;0.10;0.10;;;;;;;;;;5106956;28;20051;-44
2023/09/17 12:23:37;;;;;;;0.10;0.10;;;;;;;;;;5092165;28;20104;-44
2023/09/17 12:26:04;;;;;;;0.10;0.10;;;;;;;;;;5106986;28;20055;-45
2023/09/17 12:28:29;;;;;;;0.10;0.10;;;;;;;;;;5106987;28;20139;-46
2023/09/17 12:30:55;;;;;;;0.10;0.10;;;;;;;;;;5107057;28;20051;-44
2023/09/17 12:33:22;;;;;;;0.10;0.10;;;;;;;;;;5107097;28;20044;-43
2023/09/17 12:35:48;;;;;;;0.10;0.10;;;;;;;;;;5107151;28;20047;-44
2023/09/17 12:38:14;;;;;;;0.10;0.10;;;;;;;;;;5099625;28;20055;-46
2023/09/17 12:40:41;;;;;;;0.10;0.10;;;;;;;;;;5087187;28;20341;-46
2023/09/17 12:43:07;;;;;;;0.10;0.10;;;;;;;;;;5096424;28;20430;-43
2023/09/17 12:45:33;;;;;;;0.10;0.10;;;;;;;;;;5107057;28;20405;-45
2023/09/17 12:47:59;;;;;;;0.10;0.10;;;;;;;;;;5101882;28;20063;-43
2023/09/17 12:50:26;;;;;;;0.10;0.10;;;;;;;;;;5086912;28;20055;-45
2023/09/17 12:52:52;;;;;;;0.10;0.10;;;;;;;;;;5093784;28;20056;-45
2023/09/17 12:55:18;;;;;;;0.10;0.10;;;;;;;;;;5106137;28;20096;-47
2023/09/17 12:57:47;;;;;;;0.10;0.10;;;;;;;;;;5103955;28;20051;-46
2023/09/17 13:00:13;;;;;;;0.10;0.10;;;;;;;;;;5088720;28;20088;-43
2023/09/17 13:02:39;;;;;;;0.10;0.10;;;;;;;;;;5107309;28;20035;-42
2023/09/17 13:05:05;;;;;;;0.10;0.10;;;;;;;;;;5107096;28;20044;-45
2023/09/17 13:07:31;;;;;;;0.10;0.10;;;;;;;;;;5089480;27;20054;-45
2023/09/17 13:09:57;;;;;;;0.10;0.10;;;;;;;;;;5107294;28;20051;-46
2023/09/17 13:12:23;;;;;;;0.10;0.10;;;;;;;;;;5106035;28;20056;-45
2023/09/17 13:14:51;;;;;;;0.10;0.10;;;;;;;;;;5106386;28;20112;-42
2023/09/17 13:17:17;;;;;;;0.10;0.10;;;;;;;;;;5106471;28;20055;-45
2023/09/17 13:19:43;;;;;;;0.10;0.10;;;;;;;;;;5106519;28;20048;-43
2023/09/17 13:22:10;;;;;;;0.10;0.10;;;;;;;;;;5106835;28;20078;-47
2023/09/17 13:24:36;;;;;;;0.10;0.10;;;;;;;;;;5106214;28;20055;-43
2023/09/17 13:27:03;;;;;;;0.10;0.10;;;;;;;;;;5106935;28;20047;-45
2023/09/17 13:29:36;;;;;;;0.10;0.10;;;;;;;;;;5106426;28;20043;-41
2023/09/17 13:32:03;;;;;;;0.10;0.10;;;;;;;;;;5106451;28;20089;-42
2023/09/17 13:34:29;;;;;;;0.10;0.10;;;;;;;;;;5106651;28;20267;-43
2023/09/17 13:36:57;;;;;;;0.10;0.10;;;;;;;;;;5105258;28;20082;-46
2023/09/17 13:39:23;;;;;;;0.10;0.10;;;;;;;;;;5088210;28;20079;-44
2023/09/17 13:41:48;;;;;;;0.10;0.10;;;;;;;;;;5084353;28;20392;-44
2023/09/17 13:44:14;;;;;;;0.10;0.10;;;;;;;;;;5101918;28;20535;-47
2023/09/17 13:46:46;;;;;;;0.10;0.10;;;;;;;;;;5104284;28;20437;-43
2023/09/17 13:49:12;;;;;;;0.10;0.10;;;;;;;;;;5103199;28;20058;-45
2023/09/17 13:51:38;;;;;;;0.10;0.10;;;;;;;;;;5105447;28;20067;-69
2023/09/17 13:54:03;;;;;;;0.10;0.10;;;;;;;;;;5104986;28;20048;-46
2023/09/17 13:56:29;;;;;;;0.10;0.10;;;;;;;;;;5104722;28;20138;-45
2023/09/17 13:58:54;;;;;;;0.10;0.10;;;;;;;;;;5092427;28;20103;-45
2023/09/17 14:01:20;;;;;;;0.10;0.10;;;;;;;;;;5085558;28;20526;-46
2023/09/17 14:03:46;;;;;;;0.15;0.15;;;;;;;;;;5097990;28;20468;-43
2023/09/17 14:06:11;;;;;;;0.10;0.10;;;;;;;;;;5100403;28;20052;-42
2023/09/17 14:08:37;;;;;;;0.10;0.10;;;;;;;;;;5093940;28;20499;-45
2023/09/17 14:11:02;;;;;;;0.20;0.20;;;;;;;;;;5088133;28;20047;-43
2023/09/17 14:13:29;;;;;;;0.10;0.10;;;;;;;;;;5104658;28;20040;-45
2023/09/17 14:15:54;;;;;;;0.10;0.10;;;;;;;;;;5105692;28;20450;-45
2023/09/17 14:18:20;;;;;;;0.10;0.10;;;;;;;;;;5101770;28;20055;-45
2023/09/17 14:20:45;;;;;;;0.10;0.10;;;;;;;;;;5104753;28;20052;-42
2023/09/17 14:23:11;;;;;;;0.10;0.10;;;;;;;;;;5105666;28;20048;-45
2023/09/17 14:25:36;;;;;;;0.10;0.10;;;;;;;;;;5104918;28;20055;-43
2023/09/17 14:28:02;;;;;;;0.20;0.20;;;;;;;;;;5098796;28;20536;-46
2023/09/17 14:30:28;;;;;;;0.10;0.10;;;;;;;;;;5084718;28;20176;-43
2023/09/17 14:32:54;;;;;;;0.10;0.10;;;;;;;;;;5088895;28;20083;-45
2023/09/17 14:35:20;;;;;;;0.10;0.10;;;;;;;;;;5105632;28;20393;-47
2023/09/17 14:37:46;;;;;;;0.10;0.10;;;;;;;;;;5104982;28;20058;-45